Time;durP1;ratioP1;P1;durP2;ratioP2;P2;SDS_P1;SDS_P2;PMS_P1;PMS_P2;Temp;Humidity;BMP_temperature;BMP_pressure;BME280_temperature;BME280_humidity;BME280_pressure;Samples;Min_cycle;Max_cycle;Signal;HPM_P1;HPM_P2
2021/10/28 00:13:31;;;;;;;26.80;14.05;;;;;;;8.76;29.92;101068.34;1631953;86;21074;-67
2021/10/28 00:15:58;;;;;;;33.53;15.65;;;;;;;8.75;29.95;101073.67;1669938;84;21554;-65
2021/10/28 00:18:49;;;;;;;31.65;13.98;;;;;;;8.66;30.22;101072.80;1674896;84;21082;-66
2021/10/28 00:21:12;;;;;;;28.52;13.93;;;;;;;8.67;30.37;101074.91;1673538;84;21020;-68
2021/10/28 00:23:50;;;;;;;29.80;14.98;;;;;;;8.79;30.56;101076.33;1649156;85;22646;-66
2021/10/28 00:26:16;;;;;;;29.87;14.95;;;;;;;8.85;30.43;101075.70;1651924;84;21043;-67
2021/10/28 00:28:44;;;;;;;35.03;16.15;;;;;;;8.85;30.33;101069.70;1656920;85;21064;-67
2021/10/28 00:31:11;;;;;;;29.90;15.08;;;;;;;8.91;30.24;101075.11;1674677;84;21096;-67
2021/10/28 00:33:38;;;;;;;27.50;13.50;;;;;;;8.93;30.16;101076.25;1653894;85;21197;-68
2021/10/28 00:36:06;;;;;;;24.45;12.35;;;;;;;9.01;30.13;101075.81;1669126;85;21201;-67
2021/10/28 00:38:33;;;;;;;18.65;11.03;;;;;;;8.99;30.32;101069.96;1674209;84;21066;-66
2021/10/28 00:41:02;;;;;;;22.85;10.75;;;;;;;8.94;30.59;101075.27;1661340;84;20969;-67
2021/10/28 00:43:29;;;;;;;23.30;11.50;;;;;;;9.13;30.61;101076.86;1653981;85;21181;-67
2021/10/28 00:45:56;;;;;;;22.15;10.48;;;;;;;9.29;30.58;101078.77;1669814;84;21036;-68
2021/10/28 00:48:22;;;;;;;21.93;11.78;;;;;;;9.30;30.67;101075.19;1675196;84;21185;-67
2021/10/28 00:50:53;;;;;;;29.42;13.58;;;;;;;9.61;30.54;101077.60;1672450;84;21051;-66
2021/10/28 00:53:22;;;;;;;34.48;13.62;;;;;;;9.72;30.37;101071.30;1674844;84;20986;-65
2021/10/28 00:55:52;;;;;;;23.85;12.33;;;;;;;9.76;30.28;101073.92;1649391;85;21122;-66
2021/10/28 00:58:22;;;;;;;26.60;14.28;;;;;;;9.95;29.97;101067.14;1649586;85;20954;-66
2021/10/28 01:00:47;;;;;;;24.85;13.22;;;;;;;9.97;29.85;101065.70;1675219;84;21118;-66
2021/10/28 01:03:14;;;;;;;28.20;14.53;;;;;;;9.94;29.65;101072.03;1674404;84;21013;-69
2021/10/28 01:05:42;;;;;;;29.40;13.58;;;;;;;9.80;29.71;101063.52;1661869;84;23043;-66
2021/10/28 01:08:09;;;;;;;26.35;13.53;;;;;;;9.67;29.89;101068.37;1638195;86;20979;-65
2021/10/28 01:10:36;;;;;;;25.65;13.05;;;;;;;9.62;29.97;101069.30;1667165;85;22145;-65
2021/10/28 01:13:03;;;;;;;23.15;12.50;;;;;;;9.57;30.12;101068.97;1673800;84;21065;-68
2021/10/28 01:15:30;;;;;;;30.45;15.80;;;;;;;9.65;30.26;101073.71;1680687;83;21074;-66
2021/10/28 01:17:56;;;;;;;26.27;13.60;;;;;;;9.68;30.20;101075.20;1662217;84;21015;-68
2021/10/28 01:20:24;;;;;;;26.68;14.98;;;;;;;9.66;30.06;101074.52;1680989;84;20997;-66
2021/10/28 01:22:50;;;;;;;30.48;14.30;;;;;;;9.57;30.00;101070.27;1681917;83;21635;-65
2021/10/28 01:25:17;;;;;;;31.45;14.85;;;;;;;9.49;30.06;101074.47;1681807;84;21587;-66
2021/10/28 01:27:44;;;;;;;31.93;14.60;;;;;;;9.62;29.87;101065.40;1660558;84;21093;-66
2021/10/28 01:30:11;;;;;;;27.37;14.38;;;;;;;9.54;30.01;101065.37;1662519;84;21002;-69
2021/10/28 01:32:38;;;;;;;25.37;13.38;;;;;;;9.58;30.01;101067.50;1682778;83;20983;-66
2021/10/28 01:35:05;;;;;;;27.60;14.40;;;;;;;9.46;30.02;101069.56;1662477;84;22340;-68
2021/10/28 01:37:33;;;;;;;22.35;12.93;;;;;;;9.30;30.18;101064.78;1669486;85;21162;-66
2021/10/28 01:39:59;;;;;;;27.62;15.35;;;;;;;9.25;30.18;101066.55;1659212;84;21600;-66
2021/10/28 01:42:27;;;;;;;26.90;13.88;;;;;;;9.23;30.22;101065.38;1660928;84;20992;-67
2021/10/28 01:44:53;;;;;;;26.52;13.32;;;;;;;9.18;30.36;101075.45;1663677;84;21109;-66
2021/10/28 01:47:19;;;;;;;29.20;14.35;;;;;;;9.24;30.46;101074.84;1660720;84;20903;-67
2021/10/28 01:49:46;;;;;;;25.97;13.50;;;;;;;9.17;30.75;101075.13;1663153;84;21162;-65
2021/10/28 01:52:13;;;;;;;40.25;21.55;;;;;;;9.16;30.80;101068.75;1661630;84;21027;-68
2021/10/28 01:54:39;;;;;;;39.25;19.87;;;;;;;9.18;30.64;101065.53;1661140;84;20964;-66
2021/10/28 01:57:18;;;;;;;40.35;21.82;;;;;;;9.21;30.57;101060.02;1663096;84;21517;-68
2021/10/28 01:59:44;;;;;;;39.98;19.82;;;;;;;9.21;30.46;101063.92;1661663;84;21097;-65
2021/10/28 02:02:11;;;;;;;30.32;16.80;;;;;;;9.14;30.57;101057.22;1664511;84;21154;-68
2021/10/28 02:04:39;;;;;;;30.25;17.12;;;;;;;9.19;30.63;101058.86;1649883;85;20944;-65
2021/10/28 02:07:06;;;;;;;31.97;16.20;;;;;;;9.15;30.62;101058.84;1633392;86;21080;-68
2021/10/28 02:09:35;;;;;;;29.10;16.12;;;;;;;9.16;30.64;101057.05;1640505;85;21102;-66
2021/10/28 02:12:02;;;;;;;27.75;15.98;;;;;;;9.18;30.66;101062.44;1634732;85;21170;-68
2021/10/28 02:14:30;;;;;;;38.48;18.40;;;;;;;9.25;30.71;101061.34;1643708;85;21139;-66
2021/10/28 02:16:57;;;;;;;37.80;19.10;;;;;;;9.24;30.73;101064.89;1634772;86;21095;-66
2021/10/28 02:19:24;;;;;;;44.20;20.65;;;;;;;9.19;30.68;101068.45;1641209;85;22557;-65
2021/10/28 02:21:50;;;;;;;37.55;18.42;;;;;;;8.99;30.87;101073.05;1627101;86;21075;-65
2021/10/28 02:24:17;;;;;;;39.73;21.12;;;;;;;8.86;31.08;101076.03;1635350;86;20968;-67
2021/10/28 02:26:44;;;;;;;36.93;20.30;;;;;;;8.75;31.30;101080.17;1650981;84;21143;-65
2021/10/28 02:29:10;;;;;;;36.25;20.60;;;;;;;8.80;31.34;101081.05;1656485;85;21030;-66
2021/10/28 02:31:43;;;;;;;34.00;17.32;;;;;;;8.75;31.40;101082.77;1641366;86;21099;-65
2021/10/28 02:34:06;;;;;;;28.38;15.65;;;;;;;8.98;31.19;101087.84;1639980;86;20920;-66
2021/10/28 02:36:33;;;;;;;29.02;15.30;;;;;;;9.01;31.25;101089.30;1643012;86;21000;-65
2021/10/28 02:38:59;;;;;;;34.30;15.95;;;;;;;8.99;31.40;101088.16;1643136;86;22325;-67
2021/10/28 02:41:26;;;;;;;31.73;15.93;;;;;;;8.90;31.48;101089.09;1637557;86;21022;-66
2021/10/28 02:43:53;;;;;;;30.95;14.58;;;;;;;8.79;31.85;101088.03;1642305;86;20953;-65
2021/10/28 02:46:19;;;;;;;32.80;14.83;;;;;;;8.79;31.79;101088.03;1637988;86;21095;-68
2021/10/28 02:48:46;;;;;;;34.00;16.48;;;;;;;8.76;31.70;101081.83;1645238;85;21123;-65
2021/10/28 02:51:13;;;;;;;38.38;16.50;;;;;;;8.84;31.67;101081.07;1651546;84;22709;-67
2021/10/28 02:53:39;;;;;;;33.05;16.90;;;;;;;8.93;31.52;101086.65;1633164;85;21090;-65
2021/10/28 02:56:06;;;;;;;38.70;18.70;;;;;;;8.61;31.88;101088.53;1634321;86;20952;-65
2021/10/28 02:58:33;;;;;;;40.28;18.57;;;;;;;8.71;32.04;101085.34;1639700;86;20968;-65
2021/10/28 03:01:00;;;;;;;33.40;17.07;;;;;;;8.87;31.85;101085.48;1670555;80;21416;-71
2021/10/28 03:03:27;;;;;;;31.85;16.95;;;;;;;8.59;31.88;101078.27;1741888;80;22188;-65
2021/10/28 03:05:53;;;;;;;30.70;15.90;;;;;;;8.16;32.57;101086.77;1737656;80;21111;-64
2021/10/28 03:08:19;;;;;;;37.53;17.80;;;;;;;8.28;32.36;101089.00;1733944;80;20996;-66
2021/10/28 03:10:46;;;;;;;33.92;16.95;;;;;;;8.25;32.41;101092.37;1722376;80;21103;-66
2021/10/28 03:13:16;;;;;;;40.38;18.60;;;;;;;8.33;32.32;101091.14;1732538;82;21069;-66
2021/10/28 03:15:42;;;;;;;36.93;16.93;;;;;;;8.18;32.34;101086.97;1738236;80;21074;-64
2021/10/28 03:26:17;;;;;;;33.63;19.10;;;;;;;8.08;32.71;101080.20;1741973;80;20951;-68
2021/10/28 03:28:44;;;;;;;35.90;17.62;;;;;;;8.17;32.59;101084.02;1741084;80;22396;-65
2021/10/28 03:31:11;;;;;;;32.78;18.35;;;;;;;8.28;32.72;101080.39;1730422;80;21114;-65
2021/10/28 03:33:39;;;;;;;33.35;17.62;;;;;;;8.22;32.96;101078.38;1737613;80;21111;-65
2021/10/28 03:36:11;;;;;;;34.03;18.70;;;;;;;8.29;33.28;101073.73;1742631;80;21095;-70
2021/10/28 03:38:52;;;;;;;31.25;17.17;;;;;;;8.36;33.27;101072.67;1730824;80;21013;-67
2021/10/28 03:49:29;;;;;;;38.00;17.92;;;;;;;8.68;32.92;101072.67;1729246;82;21337;-63
2021/10/28 03:57:45;;;;;;;35.95;19.42;;;;;;;8.71;32.56;101076.24;1706168;82;21537;-68
2021/10/28 04:08:29;;;;;;;48.48;21.25;;;;;;;8.72;32.53;101082.61;1741299;81;21162;-70
2021/10/28 04:29:38;;;;;;;52.55;25.97;;;;;;;9.26;32.07;101103.30;1740514;80;21580;-69
2021/10/28 04:32:06;;;;;;;48.50;24.23;;;;;;;9.33;31.98;101099.59;1742637;80;20960;-67
2021/10/28 04:34:34;;;;;;;55.28;25.43;;;;;;;9.48;31.81;101099.36;1745464;80;21507;-68
2021/10/28 04:37:01;;;;;;;51.37;23.80;;;;;;;9.43;31.85;101101.13;1740724;81;21075;-68
2021/10/28 04:39:28;;;;;;;50.00;24.82;;;;;;;9.54;31.82;101101.31;1750581;80;21078;-68
2021/10/28 04:41:55;;;;;;;46.40;23.25;;;;;;;9.88;31.63;101096.09;1677732;83;20969;-68
2021/10/28 04:44:21;;;;;;;46.68;23.98;;;;;;;10.21;31.62;101091.79;1698248;83;21483;-68
2021/10/28 04:46:48;;;;;;;43.75;22.80;;;;;;;10.31;31.64;101095.59;1746502;81;21124;-69
2021/10/28 04:49:14;;;;;;;45.00;22.73;;;;;;;10.54;31.50;101093.67;1747608;80;20933;-70
2021/10/28 04:51:41;;;;;;;44.98;21.27;;;;;;;10.80;31.09;101093.52;1744513;81;21568;-69
2021/10/28 04:54:08;;;;;;;41.90;21.25;;;;;;;11.10;30.75;101103.73;1749586;80;21008;-68
2021/10/28 04:56:35;;;;;;;42.88;19.75;;;;;;;11.36;30.59;101096.49;1752530;81;20948;-68
2021/10/28 04:59:01;;;;;;;43.92;22.25;;;;;;;11.54;30.22;101099.39;1748758;80;21133;-70
2021/10/28 05:01:29;;;;;;;53.13;24.25;;;;;;;11.47;30.29;101096.63;1738028;81;21024;-68
2021/10/28 05:03:55;;;;;;;40.85;23.15;;;;;;;11.79;30.10;101093.09;1767016;79;20939;-65
2021/10/28 05:06:22;;;;;;;54.67;26.35;;;;;;;12.10;29.71;101092.31;1742251;81;21020;-65
2021/10/28 05:08:48;;;;;;;53.40;25.60;;;;;;;12.37;29.50;101090.50;1749439;81;20998;-64
2021/10/28 05:11:18;;;;;;;49.00;24.07;;;;;;;12.58;29.22;101083.33;1748593;81;21119;-65
2021/10/28 05:13:47;;;;;;;46.28;24.82;;;;;;;12.98;28.72;101077.41;1749932;80;21015;-68
2021/10/28 05:16:13;;;;;;;44.85;23.02;;;;;;;13.26;28.48;101084.20;1738480;80;20999;-67
2021/10/28 05:18:41;;;;;;;41.50;22.35;;;;;;;13.41;28.57;101080.28;1739656;80;20971;-66
2021/10/28 05:21:10;;;;;;;46.40;25.75;;;;;;;13.96;28.26;101082.84;1738580;80;20905;-64
2021/10/28 05:23:37;;;;;;;43.65;23.83;;;;;;;14.47;28.08;101083.24;1727632;81;22090;-65
2021/10/28 05:26:04;;;;;;;46.35;24.75;;;;;;;14.94;27.91;101087.10;1738313;80;21454;-64
2021/10/28 05:28:32;;;;;;;43.95;25.00;;;;;;;15.65;27.31;101074.60;1740719;82;21087;-70
2021/10/28 05:30:59;;;;;;;47.80;26.02;;;;;;;16.14;26.70;101076.16;1730368;82;21561;-63
2021/10/28 05:33:26;;;;;;;52.80;28.45;;;;;;;16.38;26.47;101079.23;1740094;82;20959;-66
2021/10/28 05:35:53;;;;;;;45.92;27.42;;;;;;;16.63;26.13;101076.31;1771767;80;21131;-64
2021/10/28 05:38:20;;;;;;;51.15;28.60;;;;;;;16.85;25.91;101081.38;1748277;81;21554;-64
2021/10/28 05:40:47;;;;;;;51.55;29.48;;;;;;;17.00;25.64;101080.66;1739144;81;21067;-64
2021/10/28 05:43:13;;;;;;;51.20;31.07;;;;;;;17.20;25.57;101081.44;1735280;80;21592;-66
2021/10/28 05:45:40;;;;;;;51.15;30.50;;;;;;;17.53;25.51;101076.56;1739117;81;20952;-66
2021/10/28 05:48:06;;;;;;;51.63;31.52;;;;;;;17.98;25.26;101083.98;1733769;80;21813;-72
2021/10/28 05:50:33;;;;;;;55.15;32.58;;;;;;;18.44;24.78;101082.07;1746649;80;20998;-64
2021/10/28 05:53:00;;;;;;;55.63;35.58;;;;;;;18.81;24.52;101084.86;1752535;81;21044;-66
2021/10/28 05:55:27;;;;;;;53.20;31.60;;;;;;;19.32;24.06;101078.44;1755745;81;21060;-65
2021/10/28 05:57:54;;;;;;;53.30;36.00;;;;;;;19.59;24.08;101081.60;1745234;80;21123;-67
2021/10/28 06:00:22;;;;;;;57.17;40.23;;;;;;;20.02;23.94;101078.81;1752276;80;22101;-68
2021/10/28 06:02:49;;;;;;;57.20;40.97;;;;;;;20.20;24.00;101075.83;1748698;81;21542;-66
2021/10/28 06:05:15;;;;;;;55.23;39.77;;;;;;;20.35;24.13;101081.50;1741631;80;21350;-66
2021/10/28 06:07:43;;;;;;;48.43;34.17;;;;;;;20.26;24.12;101082.84;1749469;80;21153;-64
2021/10/28 06:10:12;;;;;;;47.90;30.90;;;;;;;20.10;24.18;101087.75;1746455;81;21744;-68
2021/10/28 06:12:43;;;;;;;58.10;34.60;;;;;;;19.71;24.36;101083.02;1738369;81;21112;-75
2021/10/28 06:15:10;;;;;;;54.90;34.43;;;;;;;19.38;24.40;101094.75;1743401;81;21314;-64
2021/10/28 06:17:44;;;;;;;59.90;33.75;;;;;;;19.05;24.34;101088.48;1737046;80;21811;-66
2021/10/28 06:20:07;;;;;;;50.83;32.70;;;;;;;18.84;24.40;101091.03;1752299;80;21495;-66
2021/10/28 06:22:34;;;;;;;52.88;33.30;;;;;;;18.46;24.67;101092.72;1748219;80;21206;-72
2021/10/28 06:25:00;;;;;;;47.08;32.00;;;;;;;18.23;24.98;101086.69;1751424;80;22783;-64
2021/10/28 06:27:27;;;;;;;48.50;30.12;;;;;;;17.92;25.28;101089.33;1744385;80;21125;-65
2021/10/28 06:29:54;;;;;;;54.13;32.55;;;;;;;17.92;25.60;101092.77;1750758;81;20976;-63
2021/10/28 06:32:21;;;;;;;53.52;32.48;;;;;;;17.63;26.11;101085.36;1747739;81;21117;-71
2021/10/28 06:34:49;;;;;;;49.33;31.82;;;;;;;17.58;26.39;101091.75;1732527;80;21070;-71
2021/10/28 06:37:16;;;;;;;52.75;35.28;;;;;;;17.54;26.75;101096.66;1739816;81;21345;-66
2021/10/28 06:39:43;;;;;;;53.98;35.85;;;;;;;17.44;27.07;101092.32;1742782;80;21043;-73
2021/10/28 06:42:12;;;;;;;52.03;35.55;;;;;;;17.39;27.43;101090.31;1754060;80;21149;-65
2021/10/28 06:44:38;;;;;;;55.73;33.28;;;;;;;17.40;27.67;101091.12;1746391;81;21037;-73
2021/10/28 06:47:06;;;;;;;74.35;48.92;;;;;;;17.36;28.27;101095.19;1741677;81;21621;-67
2021/10/28 06:49:36;;;;;;;127.02;82.40;;;;;;;17.47;28.36;101096.67;1745233;80;21083;-67
2021/10/28 06:52:05;;;;;;;113.88;73.97;;;;;;;17.57;28.33;101097.53;1753933;81;21067;-67
2021/10/28 06:54:36;;;;;;;95.50;62.30;;;;;;;17.77;28.38;101095.35;1741129;80;21045;-74
2021/10/28 06:57:36;;;;;;;77.80;48.30;;;;;;;17.91;28.52;101103.00;1745362;80;21127;-71
2021/10/28 07:05:01;;;;;;;73.22;41.98;;;;;;;17.66;29.14;101100.25;1737399;81;21069;-67
2021/10/28 07:07:31;;;;;;;61.08;38.78;;;;;;;17.93;29.09;101096.20;1748457;81;20987;-68
2021/10/28 07:15:08;;;;;;;44.75;29.27;;;;;;;18.10;29.67;101095.19;1748128;80;21164;-68
2021/10/28 07:20:13;;;;;;;48.52;29.55;;;;;;;18.26;29.72;101095.19;1709181;83;21087;-75
2021/10/28 07:30:27;;;;;;;56.23;32.75;;;;;;;17.98;30.59;101080.55;1750383;80;21051;-68
2021/10/28 07:57:25;;;;;;;43.68;26.68;;;;;;;19.09;30.77;101061.91;1747968;80;20992;-70
2021/10/28 08:00:01;;;;;;;41.68;27.60;;;;;;;19.31;30.63;101054.36;1741195;80;21383;-71
2021/10/28 08:16:00;;;;;;;39.00;27.50;;;;;;;19.85;31.47;101051.36;1742765;79;21075;-69
2021/10/28 08:31:20;;;;;;;41.40;28.53;;;;;;;21.09;30.30;101019.06;1663639;83;21888;-68
2021/10/28 08:33:48;;;;;;;45.47;29.83;;;;;;;21.08;30.41;101018.78;1656824;83;21254;-71
2021/10/28 08:36:26;;;;;;;51.17;31.17;;;;;;;21.38;29.95;101017.81;1706539;80;21328;-69
2021/10/28 08:38:50;;;;;;;50.07;31.93;;;;;;;21.79;29.47;101010.61;1776394;79;21128;-69
2021/10/28 08:41:20;;;;;;;75.87;44.87;;;;;;;22.02;28.88;101018.96;1774108;80;21301;-70
2021/10/28 08:43:46;;;;;;;60.03;38.83;;;;;;;21.48;29.43;101018.02;1763089;79;21922;-70
2021/10/28 08:46:15;;;;;;;45.00;32.77;;;;;;;21.54;29.56;101024.21;1774767;80;21401;-70
2021/10/28 08:48:49;;;;;;;39.97;26.77;;;;;;;21.85;29.48;101017.59;1741586;80;21185;-70
2021/10/28 08:51:35;;;;;;;42.43;29.57;;;;;;;22.08;29.36;101014.80;1751954;80;21220;-69
2021/10/28 08:56:45;;;;;;;44.23;30.47;;;;;;;22.56;28.80;101019.30;1746441;80;21282;-71
2021/10/28 09:24:44;;;;;;;35.47;23.73;;;;;;;24.86;26.20;100983.73;1740138;80;21265;-69
2021/10/28 09:27:33;;;;;;;45.30;31.47;;;;;;;24.88;26.28;100975.45;1740767;82;21118;-70
2021/10/28 09:30:22;;;;;;;47.80;31.87;;;;;;;24.80;26.34;100970.62;1740782;80;21118;-71
2021/10/28 09:32:50;;;;;;;38.57;28.53;;;;;;;25.07;26.23;100969.13;1739002;80;21015;-75
2021/10/28 09:51:47;;;;;;;42.57;28.40;;;;;;;24.37;26.97;100955.99;1754274;80;20992;-70
2021/10/28 09:59:45;;;;;;;31.93;23.13;;;;;;;26.11;25.88;100951.13;1730064;81;21505;-71
2021/10/28 10:02:50;;;;;;;33.73;23.60;;;;;;;26.56;25.54;100951.58;1730123;81;21106;-68
2021/10/28 10:05:20;;;;;;;29.03;21.53;;;;;;;27.00;24.94;100942.81;1749942;80;20992;-70
2021/10/28 10:07:52;;;;;;;38.07;22.67;;;;;;;26.97;24.77;100935.87;1770226;80;21153;-68
2021/10/28 10:10:28;;;;;;;26.97;20.33;;;;;;;26.90;24.75;100943.68;1750486;80;21099;-69
2021/10/28 10:12:56;;;;;;;26.07;18.77;;;;;;;26.67;25.01;100942.98;1749984;80;20955;-69
2021/10/28 10:15:22;;;;;;;29.13;20.00;;;;;;;26.58;25.29;100943.27;1752376;80;20995;-68
2021/10/28 10:17:50;;;;;;;25.00;18.50;;;;;;;26.55;25.22;100940.59;1746136;80;20997;-69
2021/10/28 10:20:19;;;;;;;25.40;19.13;;;;;;;26.65;25.26;100941.91;1746000;80;22228;-68
2021/10/28 10:23:36;;;;;;;23.97;17.90;;;;;;;26.67;25.25;100930.95;1766172;80;20979;-69
2021/10/28 10:25:46;;;;;;;24.23;18.93;;;;;;;26.74;25.27;100926.08;1723977;80;21489;-70
2021/10/28 11:20:33;;;;;;;19.40;13.77;;;;;;;27.31;24.58;100883.22;1753722;81;21024;-66
2021/10/28 12:44:16;;;;;;;14.77;10.50;;;;;;;25.92;26.47;100846.70;1708348;82;20933;-66
2021/10/28 12:52:46;;;;;;;15.00;9.33;;;;;;;25.12;27.28;100843.27;1722145;82;21065;-71
2021/10/28 13:58:16;;;;;;;20.97;12.67;;;;;;;22.23;31.72;100842.98;1836451;75;21491;-73
2021/10/28 15:27:47;;;;;;;46.93;23.83;;;;;;;21.98;32.53;100838.65;1835692;76;21138;-68
2021/10/28 15:30:34;;;;;;;59.15;24.52;;;;;;;21.94;32.56;100837.00;1832029;76;21199;-66
2021/10/28 15:35:43;;;;;;;45.83;23.23;;;;;;;21.95;32.62;100842.58;1854160;75;21465;-66
2021/10/28 16:23:09;;;;;;;41.10;24.17;;;;;;;21.62;33.75;100850.05;1796159;77;21254;-67
2021/10/28 16:25:36;;;;;;;38.30;22.93;;;;;;;21.67;33.74;100845.34;1799752;77;21155;-67
2021/10/28 16:28:04;;;;;;;42.07;22.97;;;;;;;21.46;34.03;100844.23;1807358;77;21277;-67
2021/10/28 16:30:31;;;;;;;47.77;25.77;;;;;;;21.34;34.51;100846.95;1819413;77;21146;-68
2021/10/28 16:32:58;;;;;;;48.37;25.90;;;;;;;21.29;34.68;100852.95;1794025;77;21117;-69
2021/10/28 16:35:25;;;;;;;46.47;25.17;;;;;;;21.24;34.84;100849.39;1797521;77;21894;-67
2021/10/28 16:37:52;;;;;;;46.70;27.30;;;;;;;21.23;34.98;100853.09;1792942;77;21054;-67
2021/10/28 16:40:19;;;;;;;47.63;24.93;;;;;;;21.64;34.52;100854.60;1800815;77;21690;-68
2021/10/28 16:42:46;;;;;;;43.67;22.77;;;;;;;21.71;34.48;100855.77;1788374;77;21196;-68
2021/10/28 16:45:12;;;;;;;55.43;24.60;;;;;;;21.44;34.88;100852.94;1800927;77;21846;-67
2021/10/28 16:47:40;;;;;;;40.13;22.87;;;;;;;21.57;34.79;100858.73;1786340;79;22386;-68
2021/10/28 16:50:08;;;;;;;44.40;21.70;;;;;;;21.69;34.66;100861.83;1806982;77;21196;-67
2021/10/28 16:52:35;;;;;;;49.07;22.57;;;;;;;21.76;34.52;100863.80;1805511;77;21883;-70
2021/10/28 16:55:02;;;;;;;36.13;22.10;;;;;;;21.71;34.64;100858.42;1806136;77;21582;-68
2021/10/28 16:57:28;;;;;;;34.60;21.47;;;;;;;21.79;34.66;100851.38;1808256;77;21483;-67
2021/10/28 16:59:55;;;;;;;32.03;21.37;;;;;;;21.76;34.68;100853.19;1796545;77;21670;-68
2021/10/28 17:02:21;;;;;;;34.77;21.03;;;;;;;21.82;34.72;100849.05;1809629;77;21224;-68
2021/10/28 17:04:49;;;;;;;32.70;20.53;;;;;;;21.49;35.14;100855.69;1806649;77;21595;-68
2021/10/28 17:07:17;;;;;;;29.67;19.80;;;;;;;21.35;35.52;100854.66;1793363;77;21389;-69
2021/10/28 17:09:43;;;;;;;33.73;21.67;;;;;;;21.49;35.32;100853.84;1802835;77;21760;-68
2021/10/28 17:12:10;;;;;;;35.13;22.23;;;;;;;21.30;35.73;100856.41;1798270;77;21624;-68
2021/10/28 17:14:37;;;;;;;25.70;20.03;;;;;;;21.44;35.44;100862.22;1804227;77;21181;-68
2021/10/28 17:17:05;;;;;;;27.80;20.83;;;;;;;21.46;35.55;100866.24;1760334;80;21210;-69
2021/10/28 17:19:32;;;;;;;28.63;21.03;;;;;;;21.41;35.62;100866.70;1781453;78;21778;-68
2021/10/28 17:21:59;;;;;;;29.73;20.47;;;;;;;21.41;35.70;100872.80;1812189;77;21282;-65
2021/10/28 17:24:38;;;;;;;26.20;18.80;;;;;;;21.41;35.75;100864.84;1825049;77;21233;-69
2021/10/28 17:27:05;;;;;;;28.33;19.87;;;;;;;21.44;35.68;100871.00;1808863;77;21648;-70
2021/10/28 17:29:32;;;;;;;27.77;20.13;;;;;;;21.55;35.52;100862.66;1795122;78;21190;-66
2021/10/28 17:31:59;;;;;;;29.17;20.83;;;;;;;21.50;35.64;100861.27;1775667;78;21195;-70
2021/10/28 17:34:27;;;;;;;27.73;20.00;;;;;;;21.69;35.45;100863.16;1802461;77;21142;-70
2021/10/28 17:36:55;;;;;;;29.13;19.17;;;;;;;21.84;35.13;100859.41;1806192;78;21172;-69
2021/10/28 17:39:27;;;;;;;27.27;20.10;;;;;;;21.84;35.16;100862.06;1798661;78;21344;-67
2021/10/28 17:41:54;;;;;;;29.65;20.55;;;;;;;21.88;35.07;100857.87;1815460;77;21234;-67
2021/10/28 17:44:24;;;;;;;26.47;19.93;;;;;;;21.50;35.66;100863.92;1812412;77;21146;-69
2021/10/28 17:46:49;;;;;;;28.13;19.30;;;;;;;21.56;35.71;100867.75;1816312;77;21187;-67
2021/10/28 17:49:16;;;;;;;26.70;20.17;;;;;;;21.52;35.69;100871.13;1809104;78;21084;-71
2021/10/28 17:51:43;;;;;;;28.60;20.30;;;;;;;21.71;35.52;100866.39;1796432;77;21418;-68
2021/10/28 17:54:11;;;;;;;30.83;20.50;;;;;;;21.69;35.55;100873.25;1791229;77;21182;-70
2021/10/28 17:56:39;;;;;;;28.77;18.67;;;;;;;21.62;35.81;100866.77;1801512;77;21140;-68
2021/10/28 17:59:07;;;;;;;28.90;19.23;;;;;;;21.53;35.88;100872.20;1813371;78;21213;-72
2021/10/28 18:01:34;;;;;;;26.57;18.27;;;;;;;21.56;35.92;100870.92;1806662;78;21247;-68
2021/10/28 18:04:01;;;;;;;25.17;18.43;;;;;;;21.57;35.87;100873.33;1799473;77;21314;-66
2021/10/28 18:06:28;;;;;;;26.57;18.37;;;;;;;21.58;35.92;100860.33;1774641;78;21146;-66
2021/10/28 18:08:56;;;;;;;25.77;18.47;;;;;;;21.62;35.87;100864.11;1789594;78;21195;-67
2021/10/28 18:11:24;;;;;;;27.73;18.53;;;;;;;21.72;35.73;100867.98;1805102;78;21233;-70
2021/10/28 18:13:54;;;;;;;25.90;18.13;;;;;;;21.95;35.53;100865.67;1816555;78;21239;-67
2021/10/28 18:16:23;;;;;;;29.57;18.40;;;;;;;21.80;35.69;100871.03;1811422;78;21154;-66
2021/10/28 18:18:53;;;;;;;25.37;19.00;;;;;;;21.93;35.67;100880.50;1791843;78;21204;-66
2021/10/28 18:21:22;;;;;;;23.07;17.32;;;;;;;21.78;35.98;100878.94;1799018;77;21771;-70
2021/10/28 18:23:50;;;;;;;28.00;19.03;;;;;;;21.96;36.02;100883.20;1795548;77;21076;-65
2021/10/28 18:26:18;;;;;;;23.63;17.93;;;;;;;22.04;36.08;100870.31;1778676;78;21063;-65
2021/10/28 18:28:45;;;;;;;22.07;16.47;;;;;;;21.83;36.61;100876.39;1774765;79;21320;-65
2021/10/28 18:31:11;;;;;;;23.67;16.43;;;;;;;21.86;36.81;100869.27;1774752;79;21368;-65
2021/10/28 18:33:38;;;;;;;25.53;17.90;;;;;;;21.76;37.11;100873.89;1772562;78;21262;-72
2021/10/28 18:36:07;;;;;;;22.60;17.67;;;;;;;21.49;37.71;100875.05;1811503;77;21352;-71
2021/10/28 18:38:34;;;;;;;24.13;16.40;;;;;;;21.53;37.85;100866.09;1777955;78;21770;-65
2021/10/28 18:41:00;;;;;;;23.60;16.60;;;;;;;21.54;37.98;100869.02;1805202;78;21822;-68
2021/10/28 18:43:27;;;;;;;24.57;17.10;;;;;;;21.54;37.96;100864.52;1799741;77;21180;-67
2021/10/28 18:45:55;;;;;;;24.60;18.47;;;;;;;21.38;38.29;100864.80;1800723;78;21778;-71
2021/10/28 18:48:23;;;;;;;23.90;17.83;;;;;;;21.54;38.21;100863.72;1813643;78;22359;-71
2021/10/28 18:50:49;;;;;;;24.30;16.80;;;;;;;21.54;38.20;100868.50;1795746;78;22413;-69
2021/10/28 18:53:16;;;;;;;21.27;16.27;;;;;;;21.44;38.42;100874.98;1806755;78;21253;-67
2021/10/28 18:55:44;;;;;;;22.67;16.57;;;;;;;21.46;38.32;100867.57;1795410;78;21201;-67
2021/10/28 18:58:10;;;;;;;23.03;17.10;;;;;;;21.50;38.25;100870.55;1807641;78;21287;-69
2021/10/28 19:00:37;;;;;;;26.57;18.60;;;;;;;21.38;38.42;100874.08;1811979;78;21188;-70
2021/10/28 19:03:03;;;;;;;24.47;17.83;;;;;;;21.37;38.34;100874.33;1802835;79;21141;-68
2021/10/28 19:05:30;;;;;;;22.57;16.00;;;;;;;21.26;38.50;100871.19;1814688;78;21207;-70
2021/10/28 19:07:58;;;;;;;26.20;18.80;;;;;;;21.22;38.44;100866.88;1803510;78;21198;-71
2021/10/28 19:10:25;;;;;;;24.27;16.97;;;;;;;21.30;38.29;100870.46;1806614;79;21164;-70
2021/10/28 19:12:51;;;;;;;25.80;18.03;;;;;;;21.22;38.30;100875.36;1803762;78;21202;-67
2021/10/28 19:15:18;;;;;;;26.30;17.93;;;;;;;20.71;38.90;100877.03;1808890;78;21277;-70
2021/10/28 19:17:46;;;;;;;24.47;18.07;;;;;;;20.66;39.10;100876.42;1794993;78;21282;-70
2021/10/28 19:20:14;;;;;;;24.97;17.23;;;;;;;20.71;39.03;100875.72;1778241;79;21249;-69
2021/10/28 19:22:41;;;;;;;25.10;18.20;;;;;;;20.75;38.93;100887.45;1803921;78;21196;-71
2021/10/28 19:25:09;;;;;;;23.30;17.03;;;;;;;20.72;38.91;100890.56;1812726;78;21574;-68
2021/10/28 19:27:35;;;;;;;27.00;17.33;;;;;;;20.82;38.73;100896.07;1806041;78;21108;-68
2021/10/28 19:30:23;;;;;;;25.97;18.67;;;;;;;20.93;38.53;100898.41;1805620;79;21199;-69
2021/10/28 19:32:39;;;;;;;22.00;16.77;;;;;;;20.90;38.43;100895.17;1805352;79;21302;-70
2021/10/28 19:35:07;;;;;;;25.70;18.23;;;;;;;20.77;38.76;100896.78;1801963;78;21169;-68
2021/10/28 19:37:41;;;;;;;25.30;17.90;;;;;;;20.70;38.92;100895.30;1810508;78;21197;-69
2021/10/28 19:40:21;;;;;;;25.03;18.33;;;;;;;20.74;38.89;100900.42;1801544;78;21332;-69
2021/10/28 19:46:08;;;;;;;22.43;16.03;;;;;;;20.71;39.19;100912.28;1794545;77;21765;-70
2021/10/28 19:47:56;;;;;;;23.30;16.33;;;;;;;20.65;39.13;100918.53;1760256;78;21521;-72
2021/10/28 19:50:24;;;;;;;22.63;16.30;;;;;;;20.87;39.17;100916.87;1811147;78;20872;-70
2021/10/28 19:52:50;;;;;;;26.00;16.70;;;;;;;20.86;39.02;100921.05;1806565;78;21580;-69
2021/10/28 19:55:18;;;;;;;20.77;16.03;;;;;;;21.14;38.56;100921.62;1800178;78;21605;-68
2021/10/28 19:57:52;;;;;;;24.10;17.87;;;;;;;21.08;38.51;100916.72;1795873;78;21621;-68
2021/10/28 20:00:34;;;;;;;23.37;17.50;;;;;;;20.86;38.78;100919.73;1800913;78;21302;-68